createdAt,value
2022-09-01T00:09:17.988Z,11.94
2022-09-01T00:19:26.064Z,11.99
2022-09-01T00:29:33.519Z,12.00
2022-09-01T00:39:40.599Z,11.81
2022-09-01T00:49:50.882Z,11.68
2022-09-01T01:00:02.015Z,11.66
2022-09-01T01:10:08.907Z,11.63
2022-09-01T01:20:36.668Z,11.70
2022-09-01T01:30:49.357Z,11.76
2022-09-01T01:40:56.480Z,11.67
2022-09-01T01:51:05.893Z,11.45
2022-09-01T02:01:13.275Z,11.20
2022-09-01T02:11:22.254Z,11.29
2022-09-01T02:21:30.139Z,11.45
2022-09-01T02:31:37.602Z,11.36
2022-09-01T02:41:44.736Z,11.06
2022-09-01T02:51:54.599Z,10.85
2022-09-01T03:02:01.810Z,10.76
2022-09-01T03:12:08.107Z,10.75
2022-09-01T03:22:15.287Z,10.65
2022-09-01T03:32:22.982Z,10.54
2022-09-01T03:42:31.152Z,10.38
2022-09-01T03:52:41.284Z,10.30
2022-09-01T04:02:48.063Z,10.32
2022-09-01T04:13:05.611Z,10.39
2022-09-01T04:23:13.302Z,10.35
2022-09-01T04:33:22.524Z,10.36
2022-09-01T04:43:29.565Z,10.49
2022-09-01T04:53:36.650Z,10.86
2022-09-01T05:13:53.149Z,11.73
2022-09-01T05:24:04.078Z,12.19
2022-09-01T05:34:13.853Z,13.88
2022-09-01T05:44:21.104Z,14.60
2022-09-01T05:54:29.410Z,15.24
2022-09-01T06:04:35.945Z,16.85
2022-09-01T06:14:43.142Z,18.16
2022-09-01T06:24:56.654Z,18.55
2022-09-01T06:35:07.401Z,18.51
2022-09-01T06:45:15.063Z,17.78
2022-09-01T06:55:22.039Z,18.18
2022-09-01T07:26:26.606Z,18.55
2022-09-01T07:42:59.280Z,19.26
2022-09-01T07:47:20.201Z,19.49
2022-09-01T07:57:32.239Z,19.11
2022-09-01T08:07:52.545Z,19.20
2022-09-01T08:18:00.172Z,19.51
2022-09-01T08:28:07.902Z,19.26
2022-09-01T08:38:14.919Z,19.42
2022-09-01T08:49:23.156Z,19.37
2022-09-01T08:58:54.439Z,18.79
2022-09-01T09:09:05.127Z,18.90
2022-09-01T09:19:12.557Z,18.95
2022-09-01T09:29:20.862Z,19.66
2022-09-01T09:39:26.267Z,19.76
2022-09-01T09:49:41.420Z,19.88
2022-09-01T10:00:00.921Z,19.83
2022-09-01T10:10:06.213Z,19.33
2022-09-01T10:20:18.385Z,19.73
2022-09-01T10:30:28.947Z,19.82
2022-09-01T10:40:43.401Z,19.77
2022-09-01T10:50:58.379Z,19.51
2022-09-01T11:01:15.578Z,19.56
2022-09-01T11:11:27.471Z,19.92
2022-09-01T11:31:41.255Z,20.07
2022-09-01T11:41:57.541Z,20.29
2022-09-01T11:52:05.648Z,20.54
2022-09-01T12:02:19.066Z,20.52
2022-09-01T12:12:33.750Z,20.51
2022-09-01T12:22:44.066Z,19.98
2022-09-01T12:32:51.973Z,19.38
2022-09-01T12:42:59.460Z,19.48
2022-09-01T12:53:16.099Z,19.86
2022-09-01T13:03:23.762Z,19.68
2022-09-01T13:13:31.578Z,19.41
2022-09-01T13:23:38.629Z,19.41
2022-09-01T13:44:13.165Z,19.48
2022-09-01T13:54:20.777Z,19.58
2022-09-01T14:04:26.879Z,19.23
2022-09-01T14:25:03.907Z,19.15
2022-09-01T14:35:12.129Z,19.48
2022-09-01T14:45:18.772Z,19.61
2022-09-01T14:55:23.954Z,19.53
2022-09-01T15:05:39.715Z,19.46
2022-09-01T15:15:47.323Z,19.53
2022-09-01T15:25:54.478Z,19.50
2022-09-01T15:36:00.497Z,19.53
2022-09-01T15:46:06.946Z,19.47
2022-09-01T15:56:14.014Z,19.31
2022-09-01T16:06:20.278Z,19.09
2022-09-01T16:16:40.144Z,18.31
2022-09-01T16:26:48.294Z,17.76
2022-09-01T16:36:55.838Z,17.46
2022-09-01T16:47:02.027Z,17.30
2022-09-01T16:57:12.329Z,17.15
2022-09-01T17:07:29.598Z,17.02
2022-09-01T17:17:34.752Z,16.97
2022-09-01T17:27:49.483Z,16.85
2022-09-01T17:38:12.257Z,16.53
2022-09-01T17:48:20.805Z,16.15
2022-09-01T17:58:30.117Z,15.80
2022-09-01T18:08:38.958Z,15.55
2022-09-01T18:18:48.759Z,15.44
2022-09-01T18:28:54.055Z,15.33
2022-09-01T18:39:08.229Z,15.13
2022-09-01T18:49:15.604Z,14.93
2022-09-01T18:59:36.974Z,14.74
2022-09-01T19:09:42.660Z,14.67
2022-09-01T19:19:53.033Z,14.71
2022-09-01T19:30:04.309Z,14.78
2022-09-01T19:40:11.722Z,14.69
2022-09-01T19:50:21.402Z,14.56
2022-09-01T20:00:36.394Z,14.50
2022-09-01T20:10:56.519Z,14.49
2022-09-01T20:21:09.489Z,14.46
2022-09-01T20:31:30.211Z,14.46
2022-09-01T20:41:39.673Z,14.43
2022-09-01T20:51:49.187Z,14.39
2022-09-01T21:01:58.888Z,14.30
2022-09-01T21:12:05.393Z,14.09
2022-09-01T21:22:18.461Z,14.03
2022-09-01T21:32:30.822Z,13.95
2022-09-01T21:42:42.501Z,13.77
2022-09-01T21:52:50.183Z,13.48
2022-09-01T22:02:57.325Z,13.17
2022-09-01T22:13:03.126Z,12.91
2022-09-01T22:23:10.949Z,12.75
2022-09-01T22:33:19.209Z,12.50
2022-09-01T22:43:27.549Z,12.29
2022-09-01T22:53:34.489Z,12.18
2022-09-01T23:03:42.721Z,12.01
2022-09-01T23:13:50.109Z,11.69
2022-09-01T23:23:59.067Z,11.46
2022-09-01T23:34:07.736Z,11.37
2022-09-01T23:44:16.163Z,11.26
2022-09-01T23:54:23.532Z,11.12
